Track Щербина Егор Амурская обл.

Time Latitude Longitude Accuracy (66% radius in meters) Altitude (meters) Speed (km/hour) Bearing (degrees) Battery (%) GPS flag
03:11:59 43.168656 132.075372 7 79.400001525879 1.8299999237061 80.853881835938 67 1 delete
03:11:50 43.168636 132.075278 6.5 78.199996948242 0.1799999922514 50.652465820312 67 1 delete
03:11:47 43.168658 132.075371 8.5 78.800003051758 1.2099999189377 207.69104003906 67 1 delete
03:11:44 43.168770 132.075429 7.5 76.699996948242 2.2799999713898 233.49792480469 67 1 delete
03:11:41 43.168847 132.075520 7.5 77.099998474121 2.5999999046326 250.6640625 67 1 delete
03:11:38 43.168887 132.075620 7.5 77.300003051758 2.1099998950958 263.78723144531 67 1 delete
03:11:35 43.168918 132.075723 7.5 76.599998474121 1.9799998998642 243.47351074219 67 1 delete
03:11:32 43.168952 132.075828 7.5 77.599998474121 2.1299998760223 249.15344238281 67 1 delete
03:11:29 43.169029 132.075904 7 78 2 228.779296875 67 1 delete
03:11:26 43.169092 132.075991 5.5 76.599998474121 1.1999999284744 199.53918457031 67 1 delete
03:11:23 43.169130 132.076043 6 75.800003051758 1.7199999094009 233.49792480469 67 1 delete
03:11:20 43.169179 132.076110 5.5 76.300003051758 1.8199999332428 217.27111816406 67 1 delete
03:11:11 43.169253 132.076192 4.5 76.5 1.0799999237061 236.79382324219 67 1 delete
03:11:05 43.169243 132.076108 5.5 82.300003051758 0.40999999642372 87.313842773438 67 1 delete
03:11:02 43.169235 132.076028 6.5 83.300003051758 1.539999961853 72.13623046875 67 1 delete
03:10:59 43.169217 132.075967 6.5 82.5 1.0799999237061 132.11059570312 67 1 delete
03:10:56 43.169252 132.075914 7 84.199996948242 1.2099999189377 127.68310546875 67 1 delete
03:10:53 43.169268 132.075815 5.5 84.5 1.0799999237061 83.062133789062 67 1 delete
03:10:38 43.169272 132.075731 6.5 87.099998474121 1.3799999952316 13.639526367188 67 1 delete
03:10:32 43.169260 132.075658 7 84.900001525879 0.52999997138977 133.86291503906 67 1 delete
03:10:29 43.169312 132.075587 6.5 86.699996948242 0 0 67 1 delete
03:10:26 43.169294 132.075522 6 90.099998474121 0.52999997138977 83.463134765625 67 1 delete
03:10:23 43.169286 132.075417 7.5 94.300003051758 1.9799998998642 136.57653808594 67 1 delete
03:10:20 43.169295 132.075321 7.5 93.099998474121 2.4099998474121 133.23120117188 67 1 delete
03:10:17 43.169322 132.075241 6.5 95.599998474121 1.0299999713898 121.40991210938 67 1 delete
03:10:14 43.169344 132.075186 7 97.400001525879 0.56999999284744 75.756225585938 67 1 delete
03:10:11 43.169353 132.075102 7 97.300003051758 1.0199999809265 129.86389160156 67 1 delete
03:10:08 43.169410 132.075019 7.5 96.400001525879 1.6899999380112 130.91857910156 67 1 delete
03:10:05 43.169467 132.074921 7 95.900001525879 2.1499998569489 117.7734375 67 1 delete
03:10:02 43.169517 132.074806 7.5 95.699996948242 2.1199998855591 105.55114746094 67 1 delete
03:09:59 43.169570 132.074716 7 94.800003051758 2.2999999523163 118.6083984375 67 1 delete
03:09:56 43.169607 132.074637 6.5 93 1.4399999380112 123.310546875 67 1 delete
03:09:53 43.169673 132.074581 7 93 2.2799999713898 153.30322265625 67 1 delete
03:09:50 43.169777 132.074500 7 93.400001525879 2.7200000286102 151.73217773438 67 1 delete
03:09:47 43.169905 132.074431 7 95.400001525879 2.8099999427795 149.49645996094 67 1 delete
03:09:44 43.170048 132.074330 7.5 97.199996948242 3.8999998569489 152.71545410156 67 1 delete
03:09:41 43.170200 132.074224 8 95.400001525879 3.4800000190735 146.21154785156 67 1 delete
03:09:38 43.170375 132.074100 8.5 98.099998474121 3.1999998092651 157.38464355469 67 1 delete
03:09:35 43.170515 132.074000 8 99.300003051758 1.3600000143051 126.89758300781 67 1 delete
03:09:32 43.170563 132.073933 7 101.40000152588 0.50999999046326 164.64660644531 67 1 delete
03:09:29 43.170612 132.073957 7 100.59999847412 0.6599999666214 191.72790527344 67 1 delete
03:09:26 43.170685 132.073929 7 102.30000305176 0.72999995946884 173.71032714844 67 1 delete
03:09:23 43.170725 132.073897 8.5 102.09999847412 1.3999999761581 170.38146972656 67 1 delete
03:09:20 43.170792 132.073825 7.5 101 0 0 67 1 delete
03:09:14 43.170823 132.073763 8 99.5 1.3299999237061 127.69958496094 67 1 delete
03:09:08 43.170912 132.073679 7 97.199996948242 1.2599999904633 163.13049316406 67 1 delete
03:09:05 43.170959 132.073670 7 99.199996948242 0.9899999499321 151.083984375 67 1 delete
03:08:53 43.171043 132.073636 6.5 104.30000305176 1.1899999380112 136.01623535156 67 1 delete
03:08:47 43.171106 132.073529 7 107.19999694824 1.1599999666214 179.29138183594 67 1 delete
03:08:44 43.171127 132.073447 7 106.90000152588 1.789999961853 134.54956054688 67 1 delete